Race Coverage Navigation

TS # 53 / Odenton, MD  2019

 


TS STATS
TS Distance 39.5 
Total Distance 3026.44 
Miles To Go 15.17 
TS Climbing 3005 
Total Climbing
TS  Elevation
TS  Net Elevation 4786 
Map Filename Open Map 
Directions Filename  
Latitude 39.08 
Longitude -76.69 
Google Map  TimeStation Map 


TS Arrival Data
Arr Ord  #/Name Arrival DT TS Dst Avg This TS Avg Overall Ascending
 1 161 - Seana Hogan  06/24/2019 19:10 39.5  12.67  9.61 
 2 424 - Team i RON man Veterans supporting Veterans  06/24/2019 9:58 39.5  7.29  9.91 
 3 604 - Chieko Ozawa  06/24/2019 9:03 39.5  12.41  9.92 
 4 399 - Valerio Zamboni  06/24/2019 3:58 39.5  10.68  10.11 
 5 568 - Alexandra Meixner  06/23/2019 20:32 39.5  10.77  10.35 
 6 610 - Kabir Rachure  06/23/2019 13:54 39.5  13.86  10.6 
 7 618 - GREGORY ROBINSON  06/23/2019 12:11 39.5  16.81  10.66 
 8 510 - John C. Tarlton  06/23/2019 12:12 39.5  12.47  10.67 
 9 559 - Team Martin RAAM 2019 (Martin Bergmeister)  06/23/2019 9:34 39.5  12.22  10.77 
 10 411 - Geoff Brunner  06/23/2019 8:08 39.5  15  10.82 
 11 612 - Markus K. Brandl  06/23/2019 7:27 39.5  11.13  10.84 
 12 442 - Joe Barr  06/23/2019 6:06 39.5  10  10.9 
 13 529 - Isa Pulver  06/23/2019 0:30 39.5  13.39  11.11 
 14 603 - Alan Bradley  06/22/2019 22:28 39.5  12.03  11.21 
 15 615 - Philipp Amhof  06/22/2019 19:28 39.5  16.69  11.33 
 16 611 - Marcelo Soares " MIXIRICA "  06/22/2019 19:01 39.5  12.22  11.35 
 17 329 - Peter Oyler  06/22/2019 16:29 39.5  15.59  11.47 
 18 622 - Thomas Odom-Team Kyle Pease Foundation  06/22/2019 12:17 39.5  13.7  11.63 
 19 623 - Ultra Paka Racing Team (Daniel Polman)  06/22/2019 10:54 39.5  13.86  11.7 
 20 416 - Leah Goldstein  06/22/2019 10:38 39.5  12.54  11.71 
 21 367 - Daniela Genovesi  06/22/2019 8:29 39.5  10  11.81 
 22 617 - SOLO.kiwi (Craig Harper)  06/22/2019 6:29 39.5  12.47  11.9 
 23 609 - Jakob Olsen  06/21/2019 12:02 39.5  12.15  12.84 
 24 279 - Marko Baloh  06/21/2019 9:24 39.5  14.28  13 
 25 T210 - Bike Wine Team  06/24/2019 20:40 39.5  13.47  13.66 
 26 377 - Christoph Strasser  06/20/2019 0:00 39.5  15.39  15.18 
 27 T403 - EKJ Denmark  06/23/2019 19:56 39.5  18.23  15.38 
 28 T806 - Team SuperMarrow  06/23/2019 15:52 39.5  17.95  15.74 
 29 T417 - Team4RAAM 2019 powered by TGW Living Logistics  06/23/2019 14:49 39.5  18.23  15.81 
 30 T801 - Mind Over Matter  06/23/2019 14:38 39.5  19.75  15.83 
 31 T206 - Project Linear Acceleration  06/23/2019 11:47 39.5  15.1  16.04 
 32 T402 - EA/WFP RAAM Team  06/23/2019 10:57 39.5  17.05  16.12 
 33 T200 - AIR RELAX GoPro TEAM BRASIL  06/23/2019 8:58 39.5  13.24  16.27 
 34 T413 - TEAM BRASIL - SKIPPER  06/23/2019 8:47 39.5  17.17  16.32 
 35 T204 - Lucan CRC  06/23/2019 7:16 39.5  19.59  16.43 
 36 T202 - Integra Medical - BAA Racing  06/23/2019 5:32 39.5  16.81  16.58 
 37 T415 - TEAM FIRE VELO 935  06/23/2019 5:13 39.5  22.57  16.65 
 38 T405 - High Rollers  06/23/2019 5:00 39.5  15.29  16.65 
 39 T414 - Brazil Nuts  06/23/2019 2:01 39.5  16.23  16.94 
 40 T803 - Team EndoPark  06/23/2019 1:07 39.5  17.95  17.04 
 41 T412 - Team Aspect  06/23/2019 0:12 39.5  16.01  17.11 
 42 T410 - Soap-Aid  06/22/2019 20:24 39.5  20.08  17.49 
 43 T418 - The Opportunists  06/22/2019 14:11 39.5  20.61  18.15 
 44 T406 - Operation Walk Midwest  06/22/2019 12:44 39.5  20.26  18.29 
 45 T400 - Cantastic4  06/22/2019 10:11 39.5  16.69  18.57 
 46 T808 - Antonia's Friends 2019  06/22/2019 9:00 39.5  28.9  18.75 
 47 T416 - Team Rotary Raams Polio  06/22/2019 4:46 39.5  19.43  19.24 
 48 T408 - Radeln-fuer-Kinder (Cycling-for-Kids)  06/22/2019 4:35 39.5  20.79  19.24 
 49 T804 - Team FSHD Skyland Trail  06/22/2019 3:56 39.5  18.23  19.35 
 50 T802 - Scorchers  06/22/2019 1:29 39.5  19.92  19.66 
 51 T201 - EAT WELL  06/22/2019 0:49 39.5  19.75  19.68 
 52 T407 - Julian Becker   06/21/2019 23:34 39.5  19.75  19.87 
 53 T807 - Team ZOE International  06/21/2019 21:10 39.5  23.7  20.23 
 54 T401 - Data Techniques powered by Networks Centre  06/21/2019 20:27 39.5  25.76  20.28 
 55 T805 - Team Oceanside  06/21/2019 20:42 39.5  20.79  20.29 
 56 T404 - Gentlemen of speed  06/21/2019 15:51 39.5  23.47  20.93 
 57 T800 - Backstedt Racing Project 14  06/21/2019 6:34 39.5  24.18  22.4 
 58 T411 - team alpha - tischlerei groemmer  06/21/2019 6:07 39.5  23.01  22.46